Time;durP1;ratioP1;P1;durP2;ratioP2;P2;SDS_P1;SDS_P2;PMS_P1;PMS_P2;Temp;Humidity;BMP_temperature;BMP_pressure;BME280_temperature;BME280_humidity;BME280_pressure;Samples;Min_cycle;Max_cycle;Signal;HPM_P1;HPM_P2
2023/10/17 00:01:51;;;;;;;0.65;0.65;;;2.00;99.90;;;;;;5109186;28;20207;-70
2023/10/17 00:06:58;;;;;;;0.70;0.70;;;2.10;99.90;;;;;;5109582;28;20198;-70
2023/10/17 00:09:25;;;;;;;0.60;0.60;;;2.10;99.90;;;;;;5110363;28;20205;-70
2023/10/17 00:14:23;;;;;;;0.60;0.60;;;2.30;99.90;;;;;;5113483;28;20242;-70
2023/10/17 00:16:50;;;;;;;0.40;0.40;;;2.30;99.90;;;;;;5094955;28;20199;-70
2023/10/17 00:19:24;;;;;;;0.50;0.50;;;2.30;99.90;;;;;;5113281;28;20210;-70
2023/10/17 00:21:51;;;;;;;0.60;0.60;;;2.30;99.90;;;;;;5113163;28;20199;-71
2023/10/17 00:24:19;;;;;;;0.47;0.47;;;2.30;99.90;;;;;;5094602;28;20207;-71
2023/10/17 00:26:47;;;;;;;0.50;0.50;;;2.20;99.90;;;;;;5094277;28;20576;-71
2023/10/17 00:29:13;;;;;;;0.60;0.60;;;2.20;99.90;;;;;;5112931;28;20256;-71
2023/10/17 00:31:39;;;;;;;0.60;0.60;;;2.20;99.90;;;;;;5112924;28;20709;-72
2023/10/17 00:34:13;;;;;;;0.70;0.70;;;2.10;99.90;;;;;;5113144;28;20658;-71
2023/10/17 00:36:49;;;;;;;0.70;0.70;;;2.10;99.90;;;;;;5093816;28;20199;-71
2023/10/17 00:44:40;;;;;;;0.60;0.60;;;2.00;99.90;;;;;;5112854;28;20297;-70
2023/10/17 00:47:18;;;;;;;0.70;0.70;;;1.90;99.90;;;;;;5112393;28;20611;-70
2023/10/17 00:49:44;;;;;;;0.70;0.70;;;1.90;99.90;;;;;;5112338;28;20207;-70
2023/10/17 00:52:19;;;;;;;0.70;0.70;;;1.90;99.90;;;;;;5112441;28;20231;-70
2023/10/17 00:54:46;;;;;;;0.80;0.80;;;2.00;99.90;;;;;;5112318;28;20191;-70
2023/10/17 00:57:15;;;;;;;0.60;0.60;;;2.00;99.90;;;;;;5112343;28;20246;-70
2023/10/17 00:59:53;;;;;;;0.68;0.68;;;2.00;99.90;;;;;;5093492;28;20222;-70
2023/10/17 01:02:44;;;;;;;0.50;0.50;;;2.00;99.90;;;;;;5093044;28;20203;-70
2023/10/17 01:05:12;;;;;;;0.60;0.60;;;2.10;99.90;;;;;;5111836;28;20570;-70
2023/10/17 01:07:40;;;;;;;0.80;0.80;;;2.10;99.90;;;;;;5093076;28;20244;-70
2023/10/17 01:10:10;;;;;;;0.60;0.60;;;2.10;99.90;;;;;;5111543;28;20559;-70
2023/10/17 01:15:38;;;;;;;0.50;0.50;;;2.10;99.90;;;;;;5111981;28;20198;-70
2023/10/17 01:18:07;;;;;;;0.73;0.73;;;2.10;99.90;;;;;;5112070;28;20187;-70
2023/10/17 01:20:34;;;;;;;1.08;1.08;;;2.10;99.90;;;;;;5111216;28;20590;-70
2023/10/17 01:23:00;;;;;;;0.60;0.60;;;2.10;99.90;;;;;;5111705;28;20330;-70
2023/10/17 01:25:29;;;;;;;0.70;0.70;;;2.10;99.90;;;;;;5111380;28;20844;-70
2023/10/17 01:27:59;;;;;;;0.60;0.60;;;2.10;99.90;;;;;;5111739;28;20720;-70
2023/10/17 01:30:29;;;;;;;0.60;0.60;;;2.10;99.90;;;;;;5111670;28;20191;-70
2023/10/17 01:32:56;;;;;;;0.63;0.63;;;2.10;99.90;;;;;;5111839;28;20655;-70
2023/10/17 01:35:23;;;;;;;0.60;0.60;;;2.20;99.90;;;;;;5111392;28;20215;-70
2023/10/17 01:37:49;;;;;;;0.60;0.60;;;2.20;99.90;;;;;;5111823;28;20670;-70
2023/10/17 01:40:28;;;;;;;0.50;0.50;;;2.20;99.90;;;;;;5111623;28;20200;-70
2023/10/17 01:42:57;;;;;;;0.57;0.57;;;2.30;99.90;;;;;;5111638;28;20562;-70
2023/10/17 01:45:23;;;;;;;0.70;0.70;;;2.30;99.90;;;;;;5111284;28;20222;-70
2023/10/17 01:47:51;;;;;;;0.70;0.70;;;2.30;99.90;;;;;;5092734;28;20578;-69
2023/10/17 01:50:21;;;;;;;0.50;0.50;;;2.30;99.90;;;;;;5111830;28;20262;-70
2023/10/17 01:52:48;;;;;;;0.60;0.60;;;2.30;99.90;;;;;;5111570;28;20199;-70
2023/10/17 01:55:15;;;;;;;0.80;0.80;;;2.40;99.90;;;;;;5110837;28;20200;-69
2023/10/17 01:57:43;;;;;;;0.50;0.50;;;2.40;99.90;;;;;;5093230;28;20212;-70
2023/10/17 02:02:57;;;;;;;30.45;2.95;;;2.40;99.90;;;;;;5111280;28;20214;-70
2023/10/17 02:05:23;;;;;;;0.70;0.70;;;2.40;99.90;;;;;;5110970;28;20207;-70
2023/10/17 02:07:49;;;;;;;0.68;0.68;;;2.40;99.90;;;;;;5092696;28;20624;-69
2023/10/17 02:10:18;;;;;;;0.63;0.63;;;2.50;99.90;;;;;;5110955;28;20200;-69
2023/10/17 02:12:45;;;;;;;0.80;0.80;;;2.50;99.90;;;;;;5092552;28;20200;-70
2023/10/17 02:15:12;;;;;;;0.73;0.73;;;2.50;99.90;;;;;;5111156;28;20187;-70
2023/10/17 02:17:38;;;;;;;0.63;0.63;;;2.50;99.90;;;;;;5110641;28;20271;-69
2023/10/17 02:20:23;;;;;;;0.60;0.60;;;2.60;99.90;;;;;;5110897;28;20313;-69
2023/10/17 02:22:52;;;;;;;0.55;0.55;;;2.60;99.90;;;;;;5110797;28;20278;-70
2023/10/17 02:25:21;;;;;;;0.50;0.50;;;2.70;99.90;;;;;;5092221;28;20693;-70
2023/10/17 02:27:48;;;;;;;0.60;0.60;;;2.70;99.90;;;;;;5110565;28;20231;-70
2023/10/17 02:30:14;;;;;;;0.60;0.60;;;2.70;99.90;;;;;;5110619;28;20191;-69
2023/10/17 02:32:44;;;;;;;0.70;0.70;;;2.70;99.90;;;;;;5098892;28;20652;-70
2023/10/17 02:35:15;;;;;;;0.70;0.70;;;2.70;99.90;;;;;;5096738;28;20223;-69
2023/10/17 02:37:43;;;;;;;0.60;0.60;;;2.80;99.90;;;;;;5110642;28;20195;-70
2023/10/17 02:40:20;;;;;;;0.55;0.55;;;2.80;99.90;;;;;;5110490;28;20727;-70
2023/10/17 02:42:47;;;;;;;0.75;0.75;;;2.80;99.90;;;;;;5110339;28;20202;-70
2023/10/17 02:45:13;;;;;;;0.70;0.70;;;2.80;99.90;;;;;;5110558;28;20749;-68
2023/10/17 02:47:43;;;;;;;0.70;0.70;;;2.80;99.90;;;;;;5109848;28;20223;-69
2023/10/17 02:50:44;;;;;;;0.60;0.60;;;2.90;99.90;;;;;;5110148;28;20200;-70
2023/10/17 02:53:02;;;;;;;0.63;0.63;;;2.90;99.90;;;;;;5104978;28;20214;-68
2023/10/17 02:55:29;;;;;;;0.50;0.50;;;2.90;99.90;;;;;;5089540;28;20188;-69
2023/10/17 02:57:55;;;;;;;0.70;0.70;;;2.90;99.90;;;;;;5071444;28;20253;-68
2023/10/17 03:00:22;;;;;;;0.52;0.52;;;2.90;99.90;;;;;;5091901;28;20701;-69
2023/10/17 03:02:56;;;;;;;0.50;0.50;;;2.90;99.90;;;;;;5080293;28;20684;-70
2023/10/17 03:05:24;;;;;;;0.70;0.70;;;3.00;99.90;;;;;;5109826;28;20247;-70
2023/10/17 03:07:50;;;;;;;0.70;0.70;;;3.00;99.90;;;;;;5109782;28;20207;-68
2023/10/17 03:10:20;;;;;;;0.57;0.57;;;3.00;99.90;;;;;;5109234;28;20658;-68
2023/10/17 03:12:55;;;;;;;0.60;0.60;;;3.00;99.90;;;;;;5109296;28;20618;-68
2023/10/17 03:15:29;;;;;;;0.70;0.70;;;3.00;99.90;;;;;;5108653;28;20807;-69
2023/10/17 03:18:00;;;;;;;0.68;0.68;;;3.00;99.90;;;;;;5090699;28;20710;-68
2023/10/17 03:20:36;;;;;;;0.55;0.55;;;3.00;99.90;;;;;;5090194;28;20597;-68
2023/10/17 03:23:08;;;;;;;0.70;0.70;;;3.00;99.90;;;;;;5108565;28;20620;-67
2023/10/17 03:25:38;;;;;;;0.60;0.60;;;3.00;99.90;;;;;;5108580;28;20187;-68
2023/10/17 03:28:15;;;;;;;0.60;0.60;;;3.00;99.90;;;;;;5108373;28;20564;-70
2023/10/17 03:30:41;;;;;;;0.70;0.70;;;3.00;99.90;;;;;;5108349;28;20669;-69
2023/10/17 03:33:14;;;;;;;0.70;0.70;;;3.00;99.90;;;;;;5109084;28;20199;-68
2023/10/17 03:36:04;;;;;;;0.75;0.75;;;3.10;99.90;;;;;;5090323;28;20199;-69
2023/10/17 03:38:37;;;;;;;0.60;0.60;;;3.10;99.90;;;;;;5108735;28;20199;-70
2023/10/17 03:41:06;;;;;;;0.60;0.60;;;3.10;99.90;;;;;;5109474;28;20191;-68
2023/10/17 03:43:38;;;;;;;0.68;0.68;;;3.10;99.90;;;;;;5109091;28;20199;-69
2023/10/17 03:46:07;;;;;;;0.65;0.65;;;3.10;99.90;;;;;;5109116;28;20252;-69
2023/10/17 03:48:36;;;;;;;0.75;0.75;;;3.00;99.90;;;;;;5109111;28;20628;-69
2023/10/17 03:53:32;;;;;;;0.68;0.60;;;3.00;99.90;;;;;;5104056;28;20671;-68
2023/10/17 03:56:01;;;;;;;0.60;0.60;;;3.00;99.90;;;;;;5088987;28;20647;-68
2023/10/17 04:00:58;;;;;;;0.65;0.65;;;2.90;99.90;;;;;;5089309;28;20208;-68
2023/10/17 04:03:30;;;;;;;0.60;0.60;;;3.00;99.90;;;;;;5089162;28;20714;-68
2023/10/17 04:08:48;;;;;;;0.50;0.50;;;3.00;99.90;;;;;;5089148;28;20265;-70
2023/10/17 04:11:19;;;;;;;0.60;0.60;;;3.00;99.90;;;;;;5088928;28;20577;-69
2023/10/17 04:13:50;;;;;;;0.80;0.80;;;3.00;99.90;;;;;;5088750;28;20673;-69
2023/10/17 04:16:27;;;;;;;0.63;0.63;;;3.00;99.90;;;;;;5088754;28;20783;-68
2023/10/17 04:19:00;;;;;;;0.60;0.60;;;3.00;99.90;;;;;;5088554;28;20202;-68
2023/10/17 04:23:55;;;;;;;0.82;0.82;;;3.00;99.90;;;;;;5088069;28;20196;-69
2023/10/17 04:26:27;;;;;;;0.60;0.60;;;3.00;99.90;;;;;;5069349;28;20596;-69
2023/10/17 04:29:00;;;;;;;0.55;0.55;;;3.00;99.90;;;;;;5104760;28;20208;-69
2023/10/17 04:31:30;;;;;;;0.52;0.52;;;3.00;99.90;;;;;;5108249;28;20217;-69
2023/10/17 04:33:58;;;;;;;0.60;0.60;;;3.00;99.90;;;;;;5108426;28;20223;-69
2023/10/17 04:36:26;;;;;;;0.60;0.60;;;3.10;99.90;;;;;;5108232;28;20188;-69
2023/10/17 04:41:44;;;;;;;1.10;1.08;;;3.00;99.90;;;;;;5107744;28;20244;-69
2023/10/17 04:44:16;;;;;;;1.83;1.45;;;3.00;99.90;;;;;;5099583;28;20206;-71
2023/10/17 04:47:06;;;;;;;0.60;0.60;;;3.00;99.90;;;;;;5108200;28;20187;-69
2023/10/17 04:49:35;;;;;;;0.50;0.50;;;3.10;99.90;;;;;;5108284;28;20199;-69
2023/10/17 04:52:17;;;;;;;0.50;0.50;;;3.10;99.90;;;;;;5108476;28;20196;-69
2023/10/17 04:54:43;;;;;;;0.70;0.70;;;3.10;99.90;;;;;;5090519;28;20195;-68
2023/10/17 04:57:15;;;;;;;0.70;0.70;;;3.10;99.90;;;;;;5112587;28;20199;-69
2023/10/17 04:59:41;;;;;;;0.75;0.75;;;3.10;99.90;;;;;;5112229;28;20198;-69
2023/10/17 05:03:13;;;;;;;0.70;0.70;;;3.10;99.90;;;;;;5112532;28;20666;-69
2023/10/17 06:18:49;;;;;;;0.60;0.60;;;4.00;99.90;;;;;;5110701;28;20211;-73
2023/10/17 06:21:18;;;;;;;0.70;0.70;;;4.00;99.90;;;;;;5110675;28;20198;-73
2023/10/17 06:34:16;;;;;;;0.50;0.50;;;4.00;99.90;;;;;;5110272;28;20190;-73
2023/10/17 06:36:43;;;;;;;0.60;0.60;;;3.90;99.90;;;;;;5110300;28;20286;-73
2023/10/17 06:39:16;;;;;;;0.50;0.50;;;4.00;99.90;;;;;;5110681;28;20187;-73
2023/10/17 06:41:44;;;;;;;0.50;0.50;;;4.10;99.90;;;;;;5110614;28;20198;-73
2023/10/17 06:44:21;;;;;;;0.60;0.60;;;4.10;99.90;;;;;;5110252;28;20196;-72
2023/10/17 06:46:56;;;;;;;0.70;0.70;;;4.10;99.90;;;;;;5109932;28;20191;-72
2023/10/17 06:54:42;;;;;;;0.50;0.50;;;4.10;99.90;;;;;;5109665;28;20555;-73
2023/10/17 06:57:23;;;;;;;0.70;0.70;;;4.10;99.90;;;;;;5110156;28;20198;-73
2023/10/17 06:59:50;;;;;;;14.30;2.00;;;4.10;99.90;;;;;;5091757;28;20219;-73
2023/10/17 07:02:18;;;;;;;0.60;0.60;;;4.20;99.90;;;;;;5110392;28;20566;-72
2023/10/17 07:04:51;;;;;;;0.50;0.50;;;4.20;99.90;;;;;;5110581;28;20529;-72
2023/10/17 07:07:22;;;;;;;0.70;0.70;;;4.20;99.90;;;;;;5109831;28;20191;-73
2023/10/17 07:09:52;;;;;;;0.60;0.60;;;4.30;99.90;;;;;;5109846;28;20268;-71
2023/10/17 07:12:20;;;;;;;0.90;0.85;;;4.50;99.90;;;;;;5109743;28;20191;-72
2023/10/17 07:14:51;;;;;;;0.60;0.60;;;4.60;99.90;;;;;;5109453;28;20222;-71
2023/10/17 07:17:26;;;;;;;0.70;0.70;;;4.80;99.90;;;;;;5109973;28;20543;-72
2023/10/17 07:20:12;;;;;;;0.60;0.60;;;4.90;99.90;;;;;;5109900;28;20255;-72
2023/10/17 07:22:41;;;;;;;0.70;0.70;;;5.20;99.90;;;;;;5109803;28;20245;-73
2023/10/17 07:25:16;;;;;;;0.70;0.70;;;5.50;99.90;;;;;;5109925;28;20683;-71
2023/10/17 07:27:45;;;;;;;0.70;0.70;;;5.70;99.90;;;;;;5109696;28;20207;-71
2023/10/17 07:30:14;;;;;;;0.60;0.60;;;5.90;99.90;;;;;;5109708;28;20279;-72
2023/10/17 07:32:45;;;;;;;0.52;0.52;;;6.20;99.90;;;;;;5109414;28;20200;-72
2023/10/17 07:35:16;;;;;;;0.70;0.70;;;6.30;99.90;;;;;;5091333;28;20199;-72
2023/10/17 07:37:53;;;;;;;0.50;0.50;;;6.40;99.90;;;;;;5109298;28;20195;-72
2023/10/17 07:40:22;;;;;;;0.60;0.60;;;6.60;99.90;;;;;;5090172;28;20195;-72
2023/10/17 07:42:48;;;;;;;0.60;0.60;;;6.80;99.90;;;;;;5089420;28;20727;-72
2023/10/17 07:45:17;;;;;;;0.70;0.70;;;6.90;99.90;;;;;;5089198;28;20286;-72
2023/10/17 07:47:54;;;;;;;0.60;0.60;;;7.10;99.90;;;;;;5088775;28;20239;-72
2023/10/17 07:50:20;;;;;;;0.60;0.60;;;7.30;99.90;;;;;;5088794;28;20288;-72
2023/10/17 07:52:59;;;;;;;0.68;0.68;;;7.50;99.90;;;;;;5088810;28;20278;-72
2023/10/17 07:55:37;;;;;;;0.70;0.70;;;7.60;99.90;;;;;;5088935;28;20188;-72
2023/10/17 07:58:06;;;;;;;0.70;0.70;;;7.90;99.90;;;;;;5089516;28;20196;-72
2023/10/17 08:00:33;;;;;;;0.63;0.63;;;8.20;99.90;;;;;;5089023;28;20555;-72
2023/10/17 08:03:14;;;;;;;0.60;0.60;;;8.40;99.90;;;;;;5088969;28;20196;-72
2023/10/17 08:05:45;;;;;;;0.50;0.50;;;8.60;99.90;;;;;;5088685;28;20187;-72
2023/10/17 08:08:14;;;;;;;0.70;0.70;;;8.80;99.90;;;;;;5088990;28;20256;-72
2023/10/17 08:10:45;;;;;;;0.60;0.60;;;9.00;99.90;;;;;;5102864;28;20192;-72
2023/10/17 08:13:12;;;;;;;0.60;0.60;;;9.10;99.90;;;;;;5109055;28;20191;-73
2023/10/17 08:15:53;;;;;;;0.60;0.60;;;9.20;99.90;;;;;;5109014;28;20207;-72
2023/10/17 08:18:23;;;;;;;0.60;0.60;;;9.30;99.90;;;;;;5109039;28;20184;-72
2023/10/17 08:23:29;;;;;;;0.60;0.60;;;9.50;99.90;;;;;;5108847;28;20670;-73
2023/10/17 08:26:03;;;;;;;0.63;0.63;;;9.50;99.90;;;;;;5109215;28;20195;-73
2023/10/17 08:28:46;;;;;;;0.60;0.60;;;9.60;99.90;;;;;;5108561;28;20211;-72
2023/10/17 08:39:26;;;;;;;0.60;0.60;;;9.80;99.90;;;;;;5113330;28;20237;-74
2023/10/17 08:42:00;;;;;;;0.57;0.57;;;9.80;99.90;;;;;;5112643;28;20252;-73
2023/10/17 08:44:29;;;;;;;0.60;0.60;;;9.80;99.90;;;;;;5112634;28;20183;-74
2023/10/17 08:46:58;;;;;;;0.60;0.60;;;9.80;99.90;;;;;;5112449;28;20647;-74
2023/10/17 08:49:27;;;;;;;0.60;0.60;;;9.80;99.90;;;;;;5112450;28;20204;-74
2023/10/17 08:51:56;;;;;;;0.50;0.50;;;9.90;99.90;;;;;;5112626;28;20196;-74
2023/10/17 08:54:27;;;;;;;0.70;0.70;;;10.00;99.90;;;;;;5112165;28;20199;-74
2023/10/17 08:56:53;;;;;;;1.95;1.40;;;10.00;99.90;;;;;;5112591;28;20651;-74
2023/10/17 08:59:33;;;;;;;1.70;0.95;;;10.20;99.90;;;;;;5112873;28;20601;-74
2023/10/17 09:02:15;;;;;;;0.60;0.60;;;10.30;99.90;;;;;;5094076;28;20522;-74
2023/10/17 09:04:44;;;;;;;0.60;0.60;;;10.40;99.90;;;;;;5112235;28;20575;-74
2023/10/17 09:07:31;;;;;;;0.60;0.60;;;10.50;99.90;;;;;;5112075;28;20199;-74
2023/10/17 09:10:02;;;;;;;0.60;0.60;;;10.50;99.90;;;;;;5112203;28;20225;-74
2023/10/17 09:12:28;;;;;;;0.50;0.50;;;10.60;99.90;;;;;;5111944;28;20218;-74
2023/10/17 09:14:56;;;;;;;0.60;0.60;;;10.60;99.90;;;;;;5093902;28;20227;-74
2023/10/17 09:19:52;;;;;;;0.60;0.60;;;10.80;99.90;;;;;;5112053;28;20826;-74
2023/10/17 09:22:24;;;;;;;0.50;0.50;;;10.90;99.90;;;;;;5111879;28;20196;-74
2023/10/17 09:24:50;;;;;;;0.60;0.60;;;11.00;99.90;;;;;;5112098;28;20195;-74
2023/10/17 09:27:18;;;;;;;0.50;0.50;;;11.00;99.90;;;;;;5112238;28;20207;-74
2023/10/17 09:29:45;;;;;;;0.50;0.50;;;11.10;99.90;;;;;;5112015;28;20192;-75
2023/10/17 09:32:10;;;;;;;0.50;0.50;;;11.20;99.90;;;;;;5111657;28;20199;-75
2023/10/17 09:34:40;;;;;;;0.57;0.57;;;11.30;99.90;;;;;;5111603;28;20203;-75
2023/10/17 09:37:12;;;;;;;0.60;0.60;;;11.40;99.90;;;;;;5111906;28;20232;-75
2023/10/17 09:39:46;;;;;;;0.50;0.50;;;11.60;99.90;;;;;;5111696;28;20282;-75
2023/10/17 09:42:13;;;;;;;0.60;0.60;;;11.60;99.90;;;;;;5092956;28;20203;-75
2023/10/17 09:44:38;;;;;;;0.60;0.60;;;11.50;99.90;;;;;;5093149;28;20246;-74
2023/10/17 09:47:08;;;;;;;0.50;0.50;;;11.50;99.90;;;;;;5111592;28;20268;-72
2023/10/17 09:49:43;;;;;;;0.50;0.50;;;11.50;99.90;;;;;;5111473;28;20214;-71
2023/10/17 09:52:10;;;;;;;0.57;0.57;;;11.50;99.90;;;;;;5111492;28;20244;-72
2023/10/17 09:54:40;;;;;;;0.60;0.60;;;11.40;99.90;;;;;;5092692;28;20195;-71
2023/10/17 09:57:14;;;;;;;0.50;0.50;;;11.50;99.90;;;;;;5093232;28;20199;-71
2023/10/17 09:59:46;;;;;;;0.60;0.60;;;11.50;99.90;;;;;;5093010;28;20207;-72
2023/10/17 10:02:17;;;;;;;0.52;0.52;;;11.50;99.90;;;;;;5104698;28;20207;-72
2023/10/17 10:04:46;;;;;;;0.50;0.50;;;11.40;99.90;;;;;;5093509;28;20196;-72
2023/10/17 10:07:20;;;;;;;0.60;0.60;;;11.30;99.90;;;;;;5111251;28;20608;-72
2023/10/17 10:09:46;;;;;;;0.60;0.60;;;11.30;99.90;;;;;;5092981;28;20203;-72
2023/10/17 10:12:12;;;;;;;0.55;0.55;;;11.20;99.90;;;;;;5092688;28;20195;-72
2023/10/17 10:14:45;;;;;;;0.60;0.60;;;11.10;99.90;;;;;;5092897;28;20226;-71
2023/10/17 10:17:14;;;;;;;0.50;0.50;;;11.00;99.90;;;;;;5092581;28;20192;-71
2023/10/17 10:19:43;;;;;;;0.60;0.60;;;11.00;99.90;;;;;;5110931;28;20658;-72
2023/10/17 10:22:10;;;;;;;0.60;0.60;;;10.90;99.90;;;;;;5092352;28;20749;-72
2023/10/17 10:24:37;;;;;;;0.60;0.60;;;10.90;99.90;;;;;;5092091;28;20670;-71
2023/10/17 10:27:15;;;;;;;0.60;0.60;;;10.90;99.90;;;;;;5090560;28;20199;-72
2023/10/17 10:29:42;;;;;;;0.60;0.60;;;10.80;99.90;;;;;;5090250;28;20245;-71
2023/10/17 10:32:35;;;;;;;0.60;0.60;;;10.90;99.90;;;;;;5072123;28;20201;-72
2023/10/17 10:35:08;;;;;;;0.90;0.90;;;10.90;99.90;;;;;;5083573;28;20208;-72
2023/10/17 10:37:50;;;;;;;0.60;0.60;;;10.90;99.90;;;;;;5071903;28;20196;-71
2023/10/17 10:42:50;;;;;;;0.50;0.50;;;10.90;99.90;;;;;;5090299;28;20188;-71
2023/10/17 10:45:29;;;;;;;0.50;0.50;;;10.80;99.90;;;;;;5071824;28;20200;-73
2023/10/17 10:47:58;;;;;;;0.60;0.60;;;10.90;99.90;;;;;;5108298;28;20229;-71
2023/10/17 10:50:26;;;;;;;0.50;0.50;;;10.90;99.90;;;;;;5110028;28;20217;-72
2023/10/17 10:52:51;;;;;;;0.50;0.50;;;10.90;99.90;;;;;;5091595;28;20219;-71
2023/10/17 10:55:17;;;;;;;0.60;0.60;;;10.90;99.90;;;;;;5110130;28;20248;-72
2023/10/17 10:57:46;;;;;;;0.50;0.50;;;10.90;99.90;;;;;;5091363;28;20231;-71
2023/10/17 11:00:15;;;;;;;0.50;0.50;;;11.00;99.90;;;;;;5071636;28;20250;-72
2023/10/17 11:02:43;;;;;;;0.60;0.60;;;11.00;99.90;;;;;;5106926;28;20213;-71
2023/10/17 11:05:12;;;;;;;0.50;0.50;;;11.00;99.90;;;;;;5091486;28;20272;-71
2023/10/17 11:07:38;;;;;;;0.60;0.60;;;11.00;99.90;;;;;;5109787;28;20188;-72
2023/10/17 11:10:06;;;;;;;0.60;0.60;;;11.00;99.90;;;;;;5109989;28;20301;-71
2023/10/17 11:12:35;;;;;;;0.60;0.60;;;10.90;99.90;;;;;;5109762;28;20187;-70
2023/10/17 11:15:18;;;;;;;0.60;0.60;;;10.90;99.90;;;;;;5109740;28;20196;-71
2023/10/17 11:17:45;;;;;;;0.50;0.50;;;10.90;99.90;;;;;;5109659;28;20718;-71
2023/10/17 11:20:18;;;;;;;2.17;1.58;;;10.90;99.90;;;;;;5109882;28;20191;-71
2023/10/17 11:22:47;;;;;;;0.70;0.70;;;10.90;99.90;;;;;;5091274;28;20286;-71
2023/10/17 11:25:27;;;;;;;0.60;0.60;;;10.90;99.90;;;;;;5109425;28;20203;-71
2023/10/17 11:27:56;;;;;;;0.50;0.50;;;11.00;99.90;;;;;;5109724;28;20200;-70
2023/10/17 11:30:32;;;;;;;0.60;0.60;;;11.00;99.90;;;;;;5109740;28;20252;-70
2023/10/17 11:33:05;;;;;;;0.55;0.55;;;11.00;99.90;;;;;;5091338;28;20774;-71
2023/10/17 11:35:34;;;;;;;0.50;0.50;;;11.10;99.90;;;;;;5090983;28;20753;-72
2023/10/17 11:38:03;;;;;;;0.60;0.60;;;11.10;99.90;;;;;;5109526;28;20418;-70
2023/10/17 11:40:29;;;;;;;0.52;0.52;;;11.10;99.90;;;;;;5109258;28;20661;-71
2023/10/17 11:42:59;;;;;;;0.50;0.50;;;11.10;99.90;;;;;;5100863;28;20294;-70
2023/10/17 11:45:33;;;;;;;0.50;0.50;;;11.20;99.90;;;;;;5070556;28;20200;-70
2023/10/17 11:48:14;;;;;;;0.60;0.60;;;11.20;99.90;;;;;;5088704;28;20314;-71
2023/10/17 11:50:40;;;;;;;0.50;0.50;;;11.30;99.90;;;;;;5088775;28;20192;-72
2023/10/17 11:53:10;;;;;;;0.60;0.60;;;11.30;99.90;;;;;;5089997;28;20198;-71
2023/10/17 11:55:48;;;;;;;0.60;0.60;;;11.40;99.90;;;;;;5094953;28;20279;-72
2023/10/17 11:58:25;;;;;;;0.50;0.50;;;11.40;99.90;;;;;;5100364;28;20195;-72
2023/10/17 12:00:51;;;;;;;0.50;0.50;;;11.40;99.90;;;;;;5109650;28;20195;-71
2023/10/17 12:03:20;;;;;;;0.50;0.50;;;11.40;99.90;;;;;;5109409;28;20616;-71
2023/10/17 12:05:48;;;;;;;0.50;0.50;;;11.40;99.90;;;;;;5113338;28;20203;-70
2023/10/17 12:08:21;;;;;;;0.50;0.50;;;11.50;99.90;;;;;;5094986;28;20207;-75
2023/10/17 12:10:53;;;;;;;0.60;0.60;;;11.50;99.90;;;;;;5094756;28;20603;-74
2023/10/17 12:13:19;;;;;;;0.60;0.60;;;11.50;99.90;;;;;;5113179;28;20191;-74
2023/10/17 12:15:45;;;;;;;0.60;0.60;;;11.60;99.90;;;;;;5113252;28;20203;-74
2023/10/17 12:18:14;;;;;;;0.50;0.50;;;11.60;99.90;;;;;;5113206;28;20685;-75
2023/10/17 12:20:41;;;;;;;0.50;0.50;;;11.70;99.90;;;;;;5112754;28;20305;-75
2023/10/17 12:23:11;;;;;;;0.50;0.50;;;11.80;99.90;;;;;;5113263;28;20416;-75
2023/10/17 12:25:38;;;;;;;0.55;0.55;;;11.90;99.90;;;;;;5094650;28;20290;-75
2023/10/17 12:28:06;;;;;;;0.50;0.50;;;12.00;99.90;;;;;;5094699;28;20203;-75
2023/10/17 12:30:39;;;;;;;0.50;0.50;;;12.10;99.90;;;;;;5113108;28;20666;-76
2023/10/17 12:33:06;;;;;;;0.60;0.60;;;12.00;99.90;;;;;;5113142;28;20226;-75
2023/10/17 12:35:33;;;;;;;0.50;0.50;;;12.00;99.90;;;;;;5094365;28;20199;-75
2023/10/17 12:38:14;;;;;;;0.50;0.50;;;12.00;99.90;;;;;;5112983;28;20241;-75
2023/10/17 12:40:41;;;;;;;0.50;0.50;;;12.00;99.90;;;;;;5092299;28;20618;-75
2023/10/17 12:43:08;;;;;;;0.52;0.52;;;12.00;99.90;;;;;;5092523;28;20249;-75
2023/10/17 12:45:36;;;;;;;0.50;0.50;;;12.00;99.90;;;;;;5073763;28;20210;-75
2023/10/17 12:48:05;;;;;;;0.50;0.50;;;12.00;99.90;;;;;;5091894;28;20274;-75
2023/10/17 12:50:33;;;;;;;0.50;0.50;;;12.10;99.90;;;;;;5094727;28;20219;-75
2023/10/17 12:52:59;;;;;;;0.50;0.50;;;12.20;99.90;;;;;;5112386;28;20192;-75
2023/10/17 12:55:24;;;;;;;0.50;0.50;;;12.20;99.90;;;;;;5112431;28;20249;-75
2023/10/17 12:57:51;;;;;;;0.50;0.50;;;12.20;99.90;;;;;;5112573;28;20196;-75
2023/10/17 13:00:21;;;;;;;0.47;0.47;;;12.20;99.90;;;;;;5112629;28;20910;-75
2023/10/17 13:02:52;;;;;;;0.50;0.50;;;12.20;99.90;;;;;;5112485;28;20191;-75
2023/10/17 13:05:20;;;;;;;0.50;0.50;;;12.10;99.90;;;;;;5112378;28;20207;-75
2023/10/17 13:07:45;;;;;;;0.50;0.50;;;12.10;99.90;;;;;;5093996;28;20203;-74
2023/10/17 13:10:12;;;;;;;0.50;0.50;;;12.10;99.90;;;;;;5102102;28;20690;-75
2023/10/17 13:12:39;;;;;;;0.50;0.50;;;12.10;99.90;;;;;;5092027;28;20226;-74
2023/10/17 13:15:07;;;;;;;0.50;0.50;;;12.20;99.90;;;;;;5091841;28;20279;-74
2023/10/17 13:17:33;;;;;;;1.35;0.77;;;12.20;99.90;;;;;;5073603;28;20207;-75
2023/10/17 13:20:06;;;;;;;0.55;0.55;;;12.20;99.90;;;;;;5091915;28;20196;-75
2023/10/17 13:22:36;;;;;;;0.60;0.60;;;12.40;99.90;;;;;;5091777;28;20219;-74
2023/10/17 13:25:03;;;;;;;0.60;0.60;;;12.40;99.90;;;;;;5073331;28;20208;-74
2023/10/17 13:27:29;;;;;;;0.50;0.50;;;12.50;99.90;;;;;;5073302;28;20222;-74
2023/10/17 13:29:54;;;;;;;0.52;0.52;;;12.50;99.90;;;;;;5091370;28;20196;-74
2023/10/17 13:32:23;;;;;;;0.50;0.50;;;12.40;99.90;;;;;;5091506;28;20188;-75
2023/10/17 13:34:51;;;;;;;0.50;0.50;;;12.40;99.90;;;;;;5073186;28;20193;-75
2023/10/17 13:37:17;;;;;;;0.60;0.60;;;12.40;99.90;;;;;;5073466;28;20188;-75
2023/10/17 13:39:43;;;;;;;0.50;0.50;;;12.30;99.90;;;;;;5072927;28;20291;-74
2023/10/17 13:42:09;;;;;;;0.50;0.50;;;12.30;99.90;;;;;;5091348;28;20286;-75
2023/10/17 13:44:35;;;;;;;0.50;0.50;;;12.30;99.90;;;;;;5091070;28;20228;-74
2023/10/17 13:47:01;;;;;;;0.52;0.52;;;12.40;99.90;;;;;;5095657;28;20613;-75
2023/10/17 13:49:29;;;;;;;0.50;0.50;;;12.40;99.90;;;;;;5111050;28;20291;-75
2023/10/17 13:51:55;;;;;;;0.50;0.50;;;12.40;99.90;;;;;;5111588;28;20183;-75
2023/10/17 13:54:21;;;;;;;0.50;0.50;;;12.40;99.90;;;;;;5092714;28;20621;-75
2023/10/17 13:56:46;;;;;;;5.65;1.35;;;12.30;99.90;;;;;;5093192;28;20238;-76
2023/10/17 13:59:13;;;;;;;0.50;0.50;;;12.30;99.90;;;;;;5111392;28;20187;-75
2023/10/17 14:01:42;;;;;;;0.50;0.50;;;12.30;99.90;;;;;;5111170;28;20585;-74
2023/10/17 14:04:12;;;;;;;0.60;0.60;;;12.30;99.90;;;;;;5111337;28;20670;-75
2023/10/17 14:06:45;;;;;;;0.50;0.50;;;12.30;99.90;;;;;;5111083;28;20196;-75
2023/10/17 14:09:22;;;;;;;0.60;0.60;;;12.30;99.90;;;;;;5092160;28;20211;-75
2023/10/17 14:11:49;;;;;;;0.45;0.45;;;12.40;99.90;;;;;;5110179;28;20194;-74
2023/10/17 14:14:15;;;;;;;0.60;0.60;;;12.40;99.90;;;;;;5110700;28;20575;-76
2023/10/17 14:16:41;;;;;;;0.50;0.50;;;12.50;99.90;;;;;;5110068;28;20198;-74
2023/10/17 14:19:44;;;;;;;0.50;0.50;;;12.50;99.90;;;;;;5110368;28;20202;-75
2023/10/17 14:22:10;;;;;;;0.50;0.50;;;12.60;99.90;;;;;;5106063;28;20199;-74
2023/10/17 14:27:29;;;;;;;0.50;0.50;;;12.60;99.90;;;;;;5109460;28;20988;-74
2023/10/17 14:29:59;;;;;;;0.50;0.50;;;12.50;99.90;;;;;;5091577;28;20203;-74
2023/10/17 14:32:26;;;;;;;0.50;0.50;;;12.30;99.90;;;;;;5109912;28;20621;-75
2023/10/17 14:34:53;;;;;;;0.50;0.50;;;12.30;99.90;;;;;;5110318;28;20200;-74
2023/10/17 14:37:20;;;;;;;0.57;0.57;;;12.20;99.90;;;;;;5109652;28;20248;-75
2023/10/17 14:39:46;;;;;;;0.50;0.50;;;12.20;99.90;;;;;;5109932;28;20755;-74
2023/10/17 14:42:17;;;;;;;0.50;0.50;;;12.20;99.90;;;;;;5091476;28;20252;-75
2023/10/17 14:44:45;;;;;;;0.40;0.40;;;12.20;99.90;;;;;;5109565;28;20195;-75
2023/10/17 14:47:11;;;;;;;0.50;0.50;;;12.10;99.90;;;;;;5109685;28;20789;-74
2023/10/17 14:49:37;;;;;;;0.50;0.50;;;12.10;99.90;;;;;;5109851;28;20611;-75
2023/10/17 14:52:03;;;;;;;0.50;0.50;;;12.10;99.90;;;;;;5109459;28;20320;-75
2023/10/17 14:54:28;;;;;;;0.50;0.50;;;12.10;99.90;;;;;;5109702;28;20234;-75
2023/10/17 14:56:55;;;;;;;0.60;0.60;;;12.00;99.90;;;;;;5109590;28;20188;-74
2023/10/17 14:59:20;;;;;;;0.50;0.50;;;12.00;99.90;;;;;;5109679;28;20227;-75
2023/10/17 15:01:46;;;;;;;0.50;0.50;;;12.00;99.90;;;;;;5091375;28;20800;-75
2023/10/17 15:04:12;;;;;;;0.50;0.50;;;11.90;99.90;;;;;;5091723;28;20286;-75
2023/10/17 15:06:38;;;;;;;0.60;0.60;;;11.80;99.90;;;;;;5109908;28;20282;-74
2023/10/17 15:09:06;;;;;;;0.50;0.50;;;11.80;99.90;;;;;;5101262;28;20216;-74
2023/10/17 15:11:32;;;;;;;0.50;0.50;;;11.70;99.90;;;;;;5089369;28;20221;-73
2023/10/17 15:14:01;;;;;;;0.60;0.60;;;11.70;99.90;;;;;;5089770;28;20267;-74
2023/10/17 15:16:30;;;;;;;0.55;0.55;;;11.60;99.90;;;;;;5089283;28;20188;-74
2023/10/17 15:18:56;;;;;;;0.50;0.50;;;11.60;99.90;;;;;;5089407;28;20243;-74
2023/10/17 15:21:22;;;;;;;0.47;0.47;;;11.70;99.90;;;;;;5089521;28;20228;-75
2023/10/17 15:23:48;;;;;;;0.50;0.50;;;11.60;99.90;;;;;;5071151;28;20207;-74
2023/10/17 15:26:14;;;;;;;0.90;0.90;;;11.60;99.90;;;;;;5089838;28;20279;-74